Greifswald, Germany

11:13 AM CET on February 09, 2016 (GMT +0100)
Station Teddy01 | | Change Station
CLOSE
Current Station
Personal Weather Station
Location: Brandshagen, MECKLENBURG-VORPOMMERN
Elevation: 56 ft
Nearby Weather Stations

Elev 56 ft 54.24 °N, 13.17 °E | Updated 31 seconds ago

Overcast
Overcast
46.4 °F
Feels Like 45 °F
N
4.0
Wind Variable Wind from NW
Gusts 7.4 mph

Today
High -- | Low -- °F
--% Chance of Precip.
Yesterday
High -- | Low -- °F
Precip. -- in
Pressure 29.33 in
Visibility 6.2 miles
Clouds Overcast 3700 ft
Windchill 45 °F
Dew Point 9 °F
Humidity 21%
Rainfall 0.01 in
Snow Depth Not available.
7:40 AM 5:01 PM
New Moon, 1% visible
METAR EDAH 090950Z 24017G28KT 9999 OVC037 07/01 Q0993
Pressure 29.33 in
Visibility 6.2 miles
Clouds Overcast 3700 ft
Windchill 45 °F
Dew Point 9 °F
Humidity 21%
Rainfall 0.01 in
Snow Depth Not available.
7:40 AM 5:01 PM
New Moon, 1% visible
METAR EDAH 090950Z 24017G28KT 9999 OVC037 07/01 Q0993

10-Day Weather Forecast

Almanac

Astronomy

Feb. 09, 2016 Rise Set
Actual Time
Civil Twilight
Nautical Twilight
Astronomical Twilight
Moon
Length of Visible Light
Length of Day
Tomorrow will be .
, % of the Moon is Illuminated

Today's Extremes

Country Highs Country Lows

Community

WunderPhotos

Upload Photos

1,891,565 photos uploaded!

WunderBlog® & News

Nearby

Air Quality

  Air Quality AQ Index Pollutant
Not available.

Snow Depth

Station Depth Elevation

Earthquake Activity

City Distance Mag. Time & Date
Minimum magnitude displayed is 2.5.

Coastal Water Temperatures

Place Temperature

Stations

Nearby Weather Stations

Station Location Temp. Windchill Dew Point Humidity Wind Precip. Elev Updated Type